Time;durP1;ratioP1;P1;durP2;ratioP2;P2;SDS_P1;SDS_P2;PMS_P1;PMS_P2;Temp;Humidity;BMP_temperature;BMP_pressure;BME280_temperature;BME280_humidity;BME280_pressure;Samples;Min_cycle;Max_cycle;Signal;HPM_P1;HPM_P2
2022/10/07 00:00:08;;;;;;;23.00;6.22;;;;;;;8.99;100.00;102601.69;5074277;28;20017;-67
2022/10/07 00:02:33;;;;;;;24.50;6.10;;;;;;;9.01;100.00;102598.28;5074214;28;21402;-67
2022/10/07 00:04:58;;;;;;;23.98;5.93;;;;;;;8.97;100.00;102596.38;5074580;28;20032;-66
2022/10/07 00:07:24;;;;;;;24.02;6.18;;;;;;;8.94;100.00;102593.63;5074177;28;20052;-67
2022/10/07 00:09:49;;;;;;;23.95;6.30;;;;;;;8.95;100.00;102592.75;5056224;28;20024;-67
2022/10/07 00:12:15;;;;;;;24.13;5.85;;;;;;;8.93;100.00;102583.91;5073453;28;20106;-67
2022/10/07 00:14:41;;;;;;;23.20;6.57;;;;;;;8.90;100.00;102589.06;5074198;28;20059;-68
2022/10/07 00:17:06;;;;;;;23.55;6.85;;;;;;;8.82;100.00;102585.22;5074534;28;20059;-69
2022/10/07 00:19:32;;;;;;;23.40;6.20;;;;;;;8.81;100.00;102584.31;5074318;28;20051;-69
2022/10/07 00:21:57;;;;;;;23.25;6.65;;;;;;;8.75;100.00;102584.06;5073646;28;20429;-69
2022/10/07 00:24:22;;;;;;;24.33;6.32;;;;;;;8.72;100.00;102574.31;5074383;28;20427;-69
2022/10/07 00:26:48;;;;;;;24.25;6.57;;;;;;;8.69;100.00;102578.53;5071918;28;20070;-67
2022/10/07 00:29:13;;;;;;;23.30;6.53;;;;;;;8.63;100.00;102567.75;5074039;28;20029;-68
2022/10/07 00:31:40;;;;;;;23.85;6.40;;;;;;;8.63;100.00;102579.19;5073766;28;20055;-69
2022/10/07 00:34:05;;;;;;;23.48;6.68;;;;;;;8.61;100.00;102570.34;5073151;28;20068;-68
2022/10/07 00:36:33;;;;;;;23.10;6.85;;;;;;;8.64;100.00;102569.56;5073915;28;20060;-68
2022/10/07 00:39:01;;;;;;;28.05;7.13;;;;;;;8.62;100.00;102566.88;5073956;28;20071;-69
2022/10/07 00:41:32;;;;;;;21.98;6.32;;;;;;;8.57;100.00;102568.41;5072733;28;20032;-69
2022/10/07 00:43:59;;;;;;;24.02;6.90;;;;;;;8.53;100.00;102561.22;5072850;28;20031;-69
2022/10/07 00:46:32;;;;;;;23.10;6.30;;;;;;;8.53;100.00;102556.88;5073396;28;20032;-68
2022/10/07 00:49:01;;;;;;;23.40;6.57;;;;;;;8.48;100.00;102558.41;5073269;28;20093;-69
2022/10/07 00:51:28;;;;;;;25.95;6.80;;;;;;;8.44;100.00;102555.56;5072983;28;20043;-69
2022/10/07 00:53:55;;;;;;;23.23;6.40;;;;;;;8.50;100.00;102553.19;5073431;28;20029;-69
2022/10/07 00:56:23;;;;;;;23.60;6.53;;;;;;;8.42;100.00;102551.94;5071556;28;20063;-69
2022/10/07 00:58:49;;;;;;;22.48;6.80;;;;;;;8.36;100.00;102553.50;5072678;28;20029;-68
2022/10/07 01:01:15;;;;;;;23.55;6.60;;;;;;;8.38;100.00;102549.19;5073427;28;20467;-68
2022/10/07 01:03:41;;;;;;;24.67;6.50;;;;;;;8.30;100.00;102537.44;5072823;28;20471;-68
2022/10/07 01:06:06;;;;;;;24.50;6.65;;;;;;;8.28;100.00;102538.22;5073186;28;20024;-68
2022/10/07 01:08:32;;;;;;;25.70;6.88;;;;;;;8.27;100.00;102537.34;5073310;28;20016;-69
2022/10/07 01:11:27;;;;;;;24.70;7.25;;;;;;;8.23;100.00;102535.41;5072511;28;20040;-69
2022/10/07 01:14:12;;;;;;;24.13;6.97;;;;;;;8.17;100.00;102536.03;5071061;28;20115;-68
2022/10/07 01:17:22;;;;;;;24.42;7.20;;;;;;;8.11;100.00;102540.16;5072924;28;20107;-69
2022/10/07 01:20:25;;;;;;;24.73;7.05;;;;;;;8.12;100.00;102526.16;5067269;28;20036;-68
2022/10/07 01:23:07;;;;;;;22.85;7.15;;;;;;;8.08;100.00;102524.22;5069367;28;20036;-68
2022/10/07 01:25:51;;;;;;;25.38;7.00;;;;;;;8.10;100.00;102522.56;5072746;28;20028;-65
2022/10/07 01:28:30;;;;;;;24.20;6.70;;;;;;;8.11;100.00;102525.25;5071216;28;20028;-66
2022/10/07 01:31:00;;;;;;;25.10;6.70;;;;;;;8.06;100.00;102518.91;5072656;28;20024;-65
2022/10/07 01:33:29;;;;;;;25.52;7.00;;;;;;;8.05;100.00;102510.94;5071514;28;20501;-66
2022/10/07 01:35:57;;;;;;;23.13;6.50;;;;;;;8.02;100.00;102509.06;5072814;28;20486;-65
2022/10/07 01:38:27;;;;;;;27.83;6.95;;;;;;;8.01;100.00;102505.53;5072477;28;20030;-65
2022/10/07 01:40:59;;;;;;;24.58;7.18;;;;;;;7.97;100.00;102500.97;5072457;28;20024;-65
2022/10/07 01:43:25;;;;;;;26.00;7.43;;;;;;;7.93;100.00;102487.63;5072359;28;20029;-66
2022/10/07 01:45:53;;;;;;;24.00;7.25;;;;;;;7.94;100.00;102492.94;5072073;28;20471;-66
2022/10/07 01:48:18;;;;;;;25.83;7.68;;;;;;;7.89;100.00;102483.06;5072681;28;20059;-66
2022/10/07 01:50:45;;;;;;;23.88;7.63;;;;;;;7.84;100.00;102474.97;5072537;28;20017;-66
2022/10/07 01:53:32;;;;;;;23.60;7.35;;;;;;;7.85;100.00;102468.88;5071871;28;20044;-65
2022/10/07 01:56:12;;;;;;;25.48;8.00;;;;;;;7.83;100.00;102465.28;5069479;28;20040;-66
2022/10/07 01:58:48;;;;;;;27.50;8.23;;;;;;;7.83;100.00;102465.28;5069975;28;20387;-66
2022/10/07 02:01:52;;;;;;;28.60;8.13;;;;;;;7.81;100.00;102462.56;5071397;28;20478;-65
2022/10/07 02:04:38;;;;;;;25.92;8.35;;;;;;;7.81;100.00;102452.03;5014411;28;20046;-65
2022/10/07 02:07:13;;;;;;;27.67;8.45;;;;;;;7.81;100.00;102452.03;5012934;28;20034;-65
2022/10/07 02:09:48;;;;;;;25.10;8.20;;;;;;;7.74;100.00;102454.38;5011251;28;20052;-66
2022/10/07 02:12:26;;;;;;;25.63;8.48;;;;;;;7.75;100.00;102450.91;5013287;28;20136;-65
2022/10/07 02:15:01;;;;;;;26.45;7.85;;;;;;;7.70;100.00;102448.06;5010010;28;20088;-66
2022/10/07 02:17:30;;;;;;;24.67;7.60;;;;;;;7.63;100.00;102446.91;5016264;28;20034;-65
2022/10/07 02:19:55;;;;;;;25.40;7.82;;;;;;;7.63;100.00;102436.41;5010744;28;20033;-65
2022/10/07 02:22:27;;;;;;;26.67;8.48;;;;;;;7.57;100.00;102444.03;5014894;28;20041;-66
2022/10/07 02:24:54;;;;;;;26.15;7.75;;;;;;;7.58;100.00;102443.19;5013703;28;20022;-66
2022/10/07 02:27:24;;;;;;;26.60;7.70;;;;;;;7.54;100.00;102443.00;5015210;28;20041;-66
2022/10/07 02:29:53;;;;;;;25.50;8.00;;;;;;;7.54;100.00;102441.25;5012165;28;20153;-66
2022/10/07 02:32:22;;;;;;;25.42;8.43;;;;;;;7.53;100.00;102439.47;5003605;28;20030;-65
2022/10/07 02:34:53;;;;;;;25.95;8.27;;;;;;;7.54;100.00;102420.19;5016541;28;20045;-65
2022/10/07 02:37:25;;;;;;;24.60;8.48;;;;;;;7.50;100.00;102423.56;5010090;28;20030;-65
2022/10/07 02:39:52;;;;;;;25.20;7.82;;;;;;;7.41;100.00;102423.16;5012324;28;20113;-65
2022/10/07 02:42:29;;;;;;;27.15;8.60;;;;;;;7.39;100.00;102419.56;5066360;28;20044;-66
2022/10/07 02:44:58;;;;;;;25.90;9.15;;;;;;;7.41;100.00;102413.53;5070572;28;20020;-65
2022/10/07 02:47:34;;;;;;;25.92;8.73;;;;;;;7.35;100.00;102418.53;5070094;28;20067;-65
2022/10/07 02:50:04;;;;;;;27.05;8.63;;;;;;;7.39;100.00;102409.03;5071890;28;20040;-65
2022/10/07 02:52:31;;;;;;;26.73;8.75;;;;;;;7.35;100.00;102412.38;5071496;28;20033;-65
2022/10/07 02:55:03;;;;;;;25.52;8.60;;;;;;;7.33;100.00;102405.31;5071740;28;20025;-65
2022/10/07 02:57:32;;;;;;;26.63;8.50;;;;;;;7.33;100.00;102397.41;5071474;28;20027;-65
2022/10/07 02:59:59;;;;;;;25.23;8.52;;;;;;;7.27;100.00;102405.06;5071079;28;20459;-65
2022/10/07 03:02:33;;;;;;;26.25;8.45;;;;;;;7.26;100.00;102402.34;5070892;28;20459;-68
2022/10/07 03:04:59;;;;;;;26.20;8.35;;;;;;;7.25;100.00;102398.84;5071505;28;20068;-68
2022/10/07 03:07:25;;;;;;;26.77;8.30;;;;;;;7.25;100.00;102397.91;5071376;28;20163;-68
2022/10/07 03:09:51;;;;;;;27.58;8.60;;;;;;;7.27;100.00;102388.38;5071189;28;20032;-68
2022/10/07 03:12:16;;;;;;;25.98;8.20;;;;;;;7.23;100.00;102389.97;5071060;28;20045;-67
2022/10/07 03:14:43;;;;;;;24.85;7.95;;;;;;;7.21;100.00;102382.84;5071311;28;20062;-67
2022/10/07 03:17:09;;;;;;;29.05;8.40;;;;;;;7.18;100.00;102383.63;5071332;28;20096;-68
2022/10/07 03:19:35;;;;;;;25.60;7.80;;;;;;;7.20;100.00;102384.59;5071419;28;20120;-68
2022/10/07 03:22:01;;;;;;;26.13;8.38;;;;;;;7.16;100.00;102380.00;5073631;28;20024;-69
2022/10/07 03:24:27;;;;;;;26.45;7.93;;;;;;;7.06;100.00;102389.25;5074629;28;20483;-69
2022/10/07 03:26:52;;;;;;;26.83;7.95;;;;;;;7.05;100.00;102376.94;5075292;28;20078;-67
2022/10/07 03:29:18;;;;;;;27.70;8.48;;;;;;;7.03;100.00;102370.69;5074916;28;20067;-68
2022/10/07 03:31:43;;;;;;;25.17;8.40;;;;;;;7.04;100.00;102369.00;5074808;28;20075;-68
2022/10/07 03:34:09;;;;;;;25.52;8.25;;;;;;;7.00;100.00;102374.94;5074687;28;20409;-68
2022/10/07 03:36:35;;;;;;;23.75;8.23;;;;;;;6.98;100.00;102367.88;5074839;28;20533;-69
2022/10/07 03:39:00;;;;;;;25.73;9.25;;;;;;;6.92;100.00;102372.88;5075182;28;20055;-67
2022/10/07 03:41:25;;;;;;;27.90;8.77;;;;;;;6.93;100.00;102371.13;5075237;28;20028;-67
2022/10/07 03:43:51;;;;;;;27.27;8.75;;;;;;;6.89;100.00;102369.22;5074152;28;20040;-67
2022/10/07 03:46:18;;;;;;;25.27;9.07;;;;;;;6.95;100.00;102359.84;5074401;28;20042;-67
2022/10/07 03:48:44;;;;;;;24.20;8.23;;;;;;;6.97;100.00;102359.91;5073226;28;20032;-68
2022/10/07 03:51:09;;;;;;;27.08;8.48;;;;;;;6.98;100.00;102353.84;5074585;28;20024;-68
2022/10/07 03:53:37;;;;;;;26.98;8.52;;;;;;;6.95;100.00;102359.84;5073990;28;20033;-68
2022/10/07 03:56:03;;;;;;;26.25;8.57;;;;;;;6.95;100.00;102354.59;5074890;28;20380;-67
2022/10/07 03:58:28;;;;;;;24.98;8.43;;;;;;;6.90;100.00;102352.59;5074279;28;20021;-67
2022/10/07 04:01:13;;;;;;;25.70;8.73;;;;;;;6.85;100.00;102362.91;5074553;28;20028;-67
2022/10/07 04:03:39;;;;;;;25.50;8.65;;;;;;;6.88;100.00;102354.28;5072725;28;20024;-68
2022/10/07 04:06:04;;;;;;;25.08;8.57;;;;;;;6.87;100.00;102355.97;5074723;28;20042;-68
2022/10/07 04:08:31;;;;;;;26.27;8.95;;;;;;;6.82;100.00;102357.53;5072952;28;20047;-68
2022/10/07 04:10:57;;;;;;;27.25;8.95;;;;;;;6.77;100.00;102353.78;5074046;28;20032;-67
2022/10/07 04:13:23;;;;;;;27.67;8.77;;;;;;;6.78;100.00;102345.97;5073736;28;20029;-68
2022/10/07 04:15:49;;;;;;;28.40;8.95;;;;;;;6.79;100.00;102349.50;5073859;28;20033;-68
2022/10/07 04:18:14;;;;;;;27.40;8.63;;;;;;;6.80;100.00;102343.41;5074410;28;20039;-68
2022/10/07 04:20:40;;;;;;;26.10;8.75;;;;;;;6.79;100.00;102346.88;5074026;28;20384;-65
2022/10/07 04:23:06;;;;;;;29.58;9.07;;;;;;;6.79;100.00;102352.16;5073336;28;20040;-64
2022/10/07 04:25:34;;;;;;;26.77;8.98;;;;;;;6.83;100.00;102337.38;5074082;28;20024;-65
2022/10/07 04:28:13;;;;;;;27.90;9.18;;;;;;;6.85;100.00;102341.88;5073638;28;20028;-65
2022/10/07 04:30:42;;;;;;;26.20;9.07;;;;;;;6.85;100.00;102339.25;5071665;28;20035;-65
2022/10/07 04:33:07;;;;;;;24.92;8.25;;;;;;;6.83;100.00;102335.69;5070664;28;20032;-67
2022/10/07 04:35:36;;;;;;;28.00;9.07;;;;;;;6.77;100.00;102338.94;5073784;28;20028;-66
2022/10/07 04:38:01;;;;;;;26.42;9.05;;;;;;;6.75;100.00;102344.94;5073710;28;20024;-65
2022/10/07 04:40:26;;;;;;;25.70;8.82;;;;;;;6.72;100.00;102350.06;5073894;28;20036;-64
2022/10/07 04:45:36;;;;;;;27.90;9.65;;;;;;;6.70;100.00;102349.09;5073919;28;20083;-64
2022/10/07 04:48:04;;;;;;;26.45;8.73;;;;;;;6.70;100.00;102346.47;5073046;28;20538;-64
2022/10/07 04:50:31;;;;;;;25.98;8.90;;;;;;;6.67;100.00;102341.06;5071939;28;20032;-63
2022/10/07 04:52:56;;;;;;;25.80;8.85;;;;;;;6.63;100.00;102335.69;5073561;28;20082;-64
2022/10/07 04:55:22;;;;;;;27.00;9.10;;;;;;;6.57;100.00;102340.69;5073056;28;20028;-64
2022/10/07 04:57:48;;;;;;;27.50;8.95;;;;;;;6.56;100.00;102337.97;5073680;28;20024;-63
2022/10/07 05:00:14;;;;;;;26.50;8.77;;;;;;;6.56;100.00;102328.34;5072965;28;20469;-63
2022/10/07 05:02:39;;;;;;;26.83;8.93;;;;;;;6.57;100.00;102322.28;5072962;28;20025;-64
2022/10/07 05:05:05;;;;;;;27.70;9.60;;;;;;;6.54;100.00;102326.50;5072096;28;20044;-63
2022/10/07 05:07:31;;;;;;;27.38;9.00;;;;;;;6.55;100.00;102325.66;5072931;28;20036;-64
2022/10/07 05:09:56;;;;;;;27.20;8.95;;;;;;;6.53;100.00;102324.72;5073117;28;20096;-64
2022/10/07 05:12:24;;;;;;;27.20;9.20;;;;;;;6.52;100.00;102321.16;5072420;28;20040;-64
2022/10/07 05:14:50;;;;;;;27.92;9.25;;;;;;;6.50;100.00;102327.22;5073290;28;20470;-63
2022/10/07 05:17:15;;;;;;;25.95;8.70;;;;;;;6.47;100.00;102312.19;5073211;28;20107;-63
2022/10/07 05:19:40;;;;;;;30.00;8.75;;;;;;;6.51;100.00;102319.38;5073027;28;20024;-64
2022/10/07 05:22:06;;;;;;;25.85;8.50;;;;;;;6.48;100.00;102314.00;5072764;28;20032;-63
2022/10/07 05:24:31;;;;;;;29.65;9.13;;;;;;;6.49;100.00;102310.53;5072148;28;20024;-63
2022/10/07 05:26:57;;;;;;;28.45;8.48;;;;;;;6.51;100.00;102308.88;5073071;28;20111;-64
2022/10/07 05:29:22;;;;;;;28.25;8.75;;;;;;;6.44;100.00;102307.69;5065229;28;20499;-64
2022/10/07 05:31:48;;;;;;;24.83;8.50;;;;;;;6.44;100.00;102312.94;5071293;28;20020;-64
2022/10/07 05:34:14;;;;;;;27.25;8.23;;;;;;;6.49;100.00;102305.28;5072453;28;20024;-64
2022/10/07 05:36:41;;;;;;;28.20;8.70;;;;;;;6.49;100.00;102304.38;5072448;28;20467;-64
2022/10/07 05:39:06;;;;;;;27.13;8.32;;;;;;;6.40;100.00;102318.00;5072412;28;20051;-63
2022/10/07 05:41:32;;;;;;;25.85;8.40;;;;;;;6.38;100.00;102306.53;5072592;28;20021;-62
2022/10/07 05:43:59;;;;;;;28.42;8.70;;;;;;;6.36;100.00;102302.94;5070828;28;20052;-63
2022/10/07 05:46:24;;;;;;;28.20;8.77;;;;;;;6.41;100.00;102304.06;5072710;28;20070;-63
2022/10/07 05:48:51;;;;;;;28.27;8.75;;;;;;;6.44;100.00;102304.19;5072068;28;20422;-63
2022/10/07 05:51:18;;;;;;;28.05;8.38;;;;;;;6.44;100.00;102302.44;5072190;28;20030;-62
2022/10/07 05:53:45;;;;;;;26.13;8.02;;;;;;;6.51;100.00;102302.69;5068306;28;20032;-63
2022/10/07 05:56:14;;;;;;;25.77;8.00;;;;;;;6.49;100.00;102299.13;5072619;28;20519;-63
2022/10/07 05:58:40;;;;;;;24.70;7.90;;;;;;;6.50;100.00;102298.31;5071473;28;20456;-62
2022/10/07 06:01:07;;;;;;;24.77;7.65;;;;;;;6.53;100.00;102286.19;5072160;28;20112;-62
2022/10/07 06:03:32;;;;;;;26.65;7.70;;;;;;;6.60;100.00;102285.63;5070160;28;20422;-64
2022/10/07 06:05:59;;;;;;;27.33;8.20;;;;;;;6.63;100.00;102293.63;5072076;28;20025;-63
2022/10/07 06:08:25;;;;;;;25.75;7.82;;;;;;;6.65;100.00;102282.31;5072059;28;20494;-62
2022/10/07 06:13:35;;;;;;;25.85;7.30;;;;;;;6.72;100.00;102282.63;5070377;28;20043;-63
2022/10/07 06:16:06;;;;;;;27.30;7.10;;;;;;;6.76;100.00;102289.81;5072212;28;20106;-63
2022/10/07 06:18:34;;;;;;;24.23;7.00;;;;;;;6.83;100.00;102280.47;5072082;28;20094;-63
2022/10/07 06:21:00;;;;;;;26.13;6.88;;;;;;;6.88;100.00;102286.81;5069093;28;20025;-63
2022/10/07 06:23:27;;;;;;;25.83;6.90;;;;;;;6.91;100.00;102279.03;5071145;28;20039;-63
2022/10/07 06:26:00;;;;;;;22.83;6.35;;;;;;;6.96;100.00;102282.78;5071897;28;20064;-64
2022/10/07 06:28:34;;;;;;;23.88;6.43;;;;;;;7.02;100.00;102283.84;5072261;28;20028;-63
2022/10/07 06:31:06;;;;;;;24.23;6.72;;;;;;;7.06;100.00;102284.06;5072066;28;20017;-63
2022/10/07 06:33:32;;;;;;;25.05;6.45;;;;;;;7.06;100.00;102277.91;5068194;28;20067;-63
2022/10/07 06:36:01;;;;;;;23.83;6.30;;;;;;;7.09;100.00;102271.06;5071166;28;20032;-64
2022/10/07 06:38:26;;;;;;;25.63;6.30;;;;;;;7.17;100.00;102279.25;5071752;28;20100;-63
2022/10/07 06:40:59;;;;;;;26.15;6.32;;;;;;;7.24;100.00;102283.03;5071358;28;20167;-64
2022/10/07 06:43:29;;;;;;;23.17;6.63;;;;;;;7.31;100.00;102290.31;5071108;28;20104;-63
2022/10/07 06:46:00;;;;;;;24.25;6.20;;;;;;;7.35;100.00;102280.84;5071064;28;20529;-64
2022/10/07 06:48:30;;;;;;;23.40;6.23;;;;;;;7.38;100.00;102280.94;5069438;28;20032;-63
2022/10/07 06:50:57;;;;;;;25.08;6.45;;;;;;;7.44;100.00;102281.19;5065532;28;20029;-64
2022/10/07 06:53:23;;;;;;;21.98;5.93;;;;;;;7.55;100.00;102279.88;5069519;28;20028;-64
2022/10/07 06:55:58;;;;;;;22.40;5.93;;;;;;;7.65;100.00;102282.03;5052565;28;20024;-63
2022/10/07 06:58:27;;;;;;;25.60;6.00;;;;;;;7.77;100.00;102286.00;5074758;28;20013;-65
2022/10/07 07:00:55;;;;;;;24.15;6.15;;;;;;;7.84;100.00;102282.78;5072218;28;20013;-65
2022/10/07 07:03:21;;;;;;;23.40;5.85;;;;;;;7.89;100.00;102283.81;5074249;28;20032;-64
2022/10/07 07:05:47;;;;;;;22.45;5.93;;;;;;;7.95;100.00;102289.34;5074180;28;20074;-64
2022/10/07 07:08:15;;;;;;;23.73;5.60;;;;;;;8.02;100.00;102282.56;5074173;28;20414;-63
2022/10/07 07:10:42;;;;;;;23.75;5.88;;;;;;;8.12;100.00;102284.69;5072826;28;20020;-65
2022/10/07 07:13:08;;;;;;;24.60;5.63;;;;;;;8.19;100.00;102285.84;5073338;28;20040;-64
2022/10/07 07:15:35;;;;;;;22.95;5.43;;;;;;;8.27;100.00;102284.41;5074164;28;20028;-63
2022/10/07 07:18:01;;;;;;;23.88;5.72;;;;;;;8.39;100.00;102281.31;5074340;28;20025;-65
2022/10/07 07:20:33;;;;;;;22.63;5.93;;;;;;;8.47;100.00;102292.16;5073702;28;20074;-65
2022/10/07 07:23:03;;;;;;;22.92;5.50;;;;;;;8.53;100.00;102284.44;5072028;28;20035;-64
2022/10/07 07:25:28;;;;;;;22.70;5.43;;;;;;;8.55;100.00;102285.41;5073307;28;20060;-65
2022/10/07 07:27:54;;;;;;;22.85;5.72;;;;;;;8.60;100.00;102291.72;5073837;28;20051;-67
2022/10/07 07:30:22;;;;;;;21.55;5.50;;;;;;;8.62;100.00;102289.16;5073706;28;20032;-66
2022/10/07 07:32:48;;;;;;;21.27;5.30;;;;;;;8.68;100.00;102286.75;5073222;28;20031;-63
2022/10/07 07:35:13;;;;;;;22.67;5.72;;;;;;;8.75;100.00;102286.09;5071347;28;20438;-62
2022/10/07 07:37:39;;;;;;;22.25;5.28;;;;;;;8.88;100.00;102295.34;5072898;28;20081;-68
2022/10/07 07:40:05;;;;;;;21.17;5.45;;;;;;;8.96;100.00;102285.94;5073931;28;20107;-67
2022/10/07 07:42:30;;;;;;;22.67;5.88;;;;;;;9.07;100.00;102284.59;5073924;28;20491;-66
2022/10/07 07:44:57;;;;;;;22.60;5.13;;;;;;;9.17;100.00;102283.13;5074745;28;20040;-66
2022/10/07 07:47:22;;;;;;;23.63;5.03;;;;;;;9.23;100.00;102287.72;5074734;28;20020;-66
2022/10/07 07:49:48;;;;;;;22.70;5.40;;;;;;;9.35;100.00;102281.94;5074384;28;20020;-68
2022/10/07 07:52:14;;;;;;;22.27;5.53;;;;;;;9.40;100.00;102283.00;5074708;28;20349;-66
2022/10/07 07:54:40;;;;;;;22.77;5.30;;;;;;;9.43;100.00;102280.44;5074701;28;20020;-67
2022/10/07 07:57:07;;;;;;;21.20;5.00;;;;;;;9.47;100.00;102282.34;5073106;28;20048;-67
2022/10/07 07:59:33;;;;;;;22.10;5.38;;;;;;;9.51;100.00;102278.03;5074380;28;20388;-67
2022/10/07 08:01:59;;;;;;;20.92;4.88;;;;;;;9.56;100.00;102279.09;5074055;28;20028;-67
2022/10/07 08:04:25;;;;;;;24.00;5.70;;;;;;;9.62;100.00;102281.91;5074006;28;20025;-67
2022/10/07 08:06:50;;;;;;;23.50;5.45;;;;;;;9.72;100.00;102280.47;5074210;28;20027;-66
2022/10/07 08:09:16;;;;;;;23.77;5.60;;;;;;;9.79;100.00;102277.16;5073496;28;20383;-66
2022/10/07 08:11:44;;;;;;;20.92;5.00;;;;;;;9.85;100.00;102285.25;5073847;28;20083;-66
2022/10/07 08:14:13;;;;;;;22.27;5.20;;;;;;;9.90;100.00;102277.47;5073796;28;20123;-68
2022/10/07 08:16:39;;;;;;;22.88;5.25;;;;;;;9.97;100.00;102273.28;5075547;28;20063;-67
2022/10/07 08:19:04;;;;;;;23.73;5.40;;;;;;;10.00;100.00;102274.25;5074059;28;20056;-66
2022/10/07 08:21:31;;;;;;;21.77;5.22;;;;;;;10.08;100.00;102267.47;5074197;28;20024;-67
2022/10/07 08:23:58;;;;;;;22.08;5.43;;;;;;;10.16;100.00;102270.31;5074133;28;20032;-67
2022/10/07 08:26:28;;;;;;;23.00;5.38;;;;;;;10.29;100.00;102261.91;5073666;28;20095;-66
2022/10/07 08:28:54;;;;;;;22.45;5.20;;;;;;;10.35;100.00;102260.31;5073815;28;20385;-66
2022/10/07 08:31:21;;;;;;;23.25;5.20;;;;;;;10.44;100.00;102256.16;5072904;28;20487;-66
2022/10/07 08:33:48;;;;;;;21.88;4.88;;;;;;;10.60;100.00;102272.44;5072163;28;20032;-67
2022/10/07 08:36:16;;;;;;;22.05;4.63;;;;;;;10.75;100.00;102262.28;5073579;28;20056;-68
2022/10/07 08:38:43;;;;;;;21.45;4.88;;;;;;;10.93;100.00;102258.31;5072562;28;20032;-67
2022/10/07 08:41:08;;;;;;;22.70;4.75;;;;;;;11.02;100.00;102261.19;5070766;28;20044;-68
2022/10/07 08:43:39;;;;;;;22.15;4.80;;;;;;;11.13;100.00;102262.34;5071867;28;20059;-67
2022/10/07 08:46:07;;;;;;;20.83;4.50;;;;;;;11.23;100.00;102252.88;5071798;28;20029;-66
2022/10/07 08:48:37;;;;;;;21.52;4.50;;;;;;;11.45;100.00;102256.94;5070118;28;20024;-65
2022/10/07 08:51:20;;;;;;;19.35;4.15;;;;;;;11.77;100.00;102232.03;5073338;28;20497;-66
2022/10/07 08:53:49;;;;;;;20.90;4.10;;;;;;;11.98;100.00;102253.69;5072467;28;20028;-66
2022/10/07 08:56:22;;;;;;;20.70;4.47;;;;;;;12.07;100.00;102245.03;5073105;28;20017;-66
2022/10/07 08:59:20;;;;;;;21.65;4.40;;;;;;;12.03;100.00;102235.25;5071605;28;20032;-66
2022/10/07 09:02:08;;;;;;;21.55;4.55;;;;;;;11.99;100.00;102231.63;5070034;28;20032;-65
2022/10/07 09:04:40;;;;;;;24.55;4.70;;;;;;;12.10;100.00;102226.56;5072492;28;20471;-68
2022/10/07 09:07:18;;;;;;;19.30;4.00;;;;;;;12.26;100.00;102221.56;5073183;28;20032;-66
2022/10/07 09:09:53;;;;;;;22.92;4.40;;;;;;;12.48;100.00;102229.06;5069765;28;20074;-65
2022/10/07 09:12:23;;;;;;;21.13;4.28;;;;;;;12.53;100.00;102226.50;5072575;28;20063;-66
2022/10/07 09:14:53;;;;;;;21.55;4.40;;;;;;;12.58;100.00;102226.56;5070742;28;20028;-63
2022/10/07 09:17:28;;;;;;;20.63;4.20;;;;;;;12.64;100.00;102224.00;5073165;28;20099;-63
2022/10/07 09:19:58;;;;;;;19.75;4.07;;;;;;;12.81;100.00;102227.84;5072712;28;20028;-67
2022/10/07 09:22:33;;;;;;;20.80;3.95;;;;;;;13.02;100.00;102215.84;5070550;28;20025;-66
2022/10/07 09:25:21;;;;;;;20.85;4.50;;;;;;;13.52;100.00;102206.84;5072334;28;20031;-66
2022/10/07 09:27:49;;;;;;;20.60;4.05;;;;;;;13.91;100.00;102209.13;5072429;28;20024;-68
2022/10/07 09:30:15;;;;;;;19.65;4.05;;;;;;;14.18;100.00;102199.69;5071989;28;20395;-64
2022/10/07 09:32:44;;;;;;;21.17;4.32;;;;;;;14.64;100.00;102205.50;5072360;28;20024;-64
2022/10/07 09:35:21;;;;;;;21.17;4.18;;;;;;;14.88;100.00;102211.94;5072614;28;20035;-64
2022/10/07 09:38:09;;;;;;;19.30;3.75;;;;;;;14.82;100.00;102198.53;5072378;28;20040;-63
2022/10/07 09:43:26;;;;;;;18.80;3.50;;;;;;;16.06;100.00;102193.94;5072016;28;20087;-63
2022/10/07 09:45:52;;;;;;;22.23;3.95;;;;;;;16.68;100.00;102193.16;5071918;28;20040;-65
2022/10/07 09:48:24;;;;;;;19.33;3.60;;;;;;;16.99;100.00;102190.50;5072075;28;20029;-65
2022/10/07 09:50:50;;;;;;;17.88;3.22;;;;;;;16.70;100.00;102188.72;5069753;28;20078;-64
2022/10/07 09:53:17;;;;;;;19.40;3.72;;;;;;;16.84;100.00;102190.50;5071026;28;20028;-64
2022/10/07 09:55:42;;;;;;;16.52;3.40;;;;;;;16.98;100.00;102183.41;5072190;28;20052;-64
2022/10/07 09:58:26;;;;;;;21.92;3.65;;;;;;;17.58;100.00;102174.34;5072234;28;20063;-64
2022/10/07 10:00:53;;;;;;;19.83;3.67;;;;;;;17.89;100.00;102175.06;5071367;28;20082;-64
2022/10/07 10:03:19;;;;;;;19.30;3.40;;;;;;;17.96;100.00;102177.78;5071526;28;20020;-64
2022/10/07 10:06:07;;;;;;;19.35;3.78;;;;;;;18.26;100.00;102172.22;5072185;28;20154;-68
2022/10/07 10:08:36;;;;;;;19.52;3.70;;;;;;;18.18;100.00;102174.06;5072043;28;20027;-65
2022/10/07 10:11:04;;;;;;;19.38;3.63;;;;;;;18.29;100.00;102168.66;5072061;28;20049;-67
2022/10/07 10:13:39;;;;;;;19.65;3.83;;;;;;;18.49;100.00;102162.25;5071425;28;20032;-68
2022/10/07 10:16:26;;;;;;;19.40;3.40;;;;;;;19.25;100.00;102159.78;5068382;28;20035;-68
2022/10/07 10:18:57;;;;;;;19.63;3.53;;;;;;;19.71;100.00;102161.03;5071931;28;20356;-68
2022/10/07 10:21:39;;;;;;;18.70;3.40;;;;;;;19.94;100.00;102161.63;5072161;28;20021;-69
2022/10/07 10:24:13;;;;;;;20.25;3.70;;;;;;;19.67;76.75;102152.13;5071671;28;20032;-69
2022/10/07 10:26:45;;;;;;;17.50;3.50;;;;;;;19.50;77.98;102138.94;5071719;28;20029;-67
2022/10/07 10:29:31;;;;;;;19.13;3.75;;;;;;;20.13;77.62;102132.72;5068853;28;20529;-69
2022/10/07 10:31:59;;;;;;;17.85;3.83;;;;;;;21.12;66.43;102127.50;5070072;28;20036;-66
2022/10/07 10:34:41;;;;;;;20.25;4.00;;;;;;;21.85;64.10;102130.47;5071348;28;20531;-67
2022/10/07 10:37:12;;;;;;;20.65;3.70;;;;;;;21.82;60.52;102121.59;5071724;28;20036;-68
2022/10/07 10:40:01;;;;;;;18.65;3.38;;;;;;;21.40;60.22;102122.44;5071357;28;20028;-66
2022/10/07 10:43:12;;;;;;;18.15;3.33;;;;;;;21.51;59.87;102112.38;5068201;28;20071;-64
2022/10/07 10:45:55;;;;;;;19.13;3.50;;;;;;;21.66;54.29;102107.59;5070807;28;20027;-63
2022/10/07 10:48:31;;;;;;;18.45;3.28;;;;;;;21.86;50.65;102105.31;5071310;28;20032;-65
2022/10/07 10:51:20;;;;;;;16.67;3.20;;;;;;;21.72;49.69;102099.38;5069375;28;20029;-64
2022/10/07 10:54:13;;;;;;;20.65;3.40;;;;;;;20.65;51.83;102108.59;5067568;28;20475;-63
2022/10/07 10:56:57;;;;;;;17.10;3.10;;;;;;;21.03;52.85;102093.63;5071238;28;20025;-63
2022/10/07 10:59:41;;;;;;;19.30;3.38;;;;;;;21.03;51.52;102088.25;5071437;28;20531;-64
2022/10/07 11:02:21;;;;;;;18.65;3.50;;;;;;;21.36;49.42;102085.75;5069942;28;20039;-66
2022/10/07 11:04:53;;;;;;;17.33;3.65;;;;;;;21.79;48.68;102084.84;5070973;28;20032;-71
2022/10/07 11:07:24;;;;;;;19.20;3.30;;;;;;;21.42;49.96;102091.91;5071343;28;20479;-69
2022/10/07 11:10:26;;;;;;;19.05;3.47;;;;;;;21.31;51.27;102082.31;5071299;28;20107;-73
2022/10/07 11:12:56;;;;;;;19.02;3.22;;;;;;;22.36;45.19;102080.81;4988298;28;20118;-71
2022/10/07 11:15:27;;;;;;;16.38;3.30;;;;;;;22.78;41.28;102077.91;4973527;28;20052;-71
2022/10/07 11:17:59;;;;;;;17.75;3.00;;;;;;;22.29;43.10;102074.69;4992417;28;20039;-71
2022/10/07 11:20:35;;;;;;;18.20;3.40;;;;;;;22.28;42.87;102070.22;4989493;28;20446;-70
2022/10/07 11:23:18;;;;;;;19.10;3.45;;;;;;;22.04;43.85;102063.59;4990397;28;20034;-70
2022/10/07 11:26:00;;;;;;;19.67;3.50;;;;;;;22.17;43.99;102048.03;4973680;28;20436;-69
2022/10/07 11:28:27;;;;;;;17.88;3.20;;;;;;;22.37;42.71;102060.16;4990025;28;20041;-71
2022/10/07 11:31:06;;;;;;;18.40;3.42;;;;;;;22.54;43.12;102052.53;4989935;28;20038;-69
2022/10/07 11:33:45;;;;;;;18.17;3.17;;;;;;;22.77;43.06;102045.59;4990705;28;20037;-63
2022/10/07 11:36:16;;;;;;;19.42;3.42;;;;;;;23.87;41.18;102037.88;4973263;28;20034;-62
2022/10/07 11:38:44;;;;;;;17.03;3.23;;;;;;;24.06;39.62;102043.53;4991636;28;20042;-63